M I D A S
Marine Information and Data Acquisition System
Tripno 227 of the Zeeleeuw from 2002-03-21 08:06:56 to 2002-03-21 14:39:55
Back to CruiseResearch ActivitiesStationsMapUnderway DataData graphs

EquipmentUnitsComment
TimeDGPSUTC
LatitudeDGPSDM.mWGS84
LongitudeDGPSDM.mWGS84
TemperatureSBE03/SBE38deg celciusITS90
ConductivitySBE21S/mITS90
SalinitySBE21 Practical Salinity Units
ChlorophylAChelsea fluorimeterg/lCalibrated in Aceton
Missing or incorrect values are displayed as -999
Sea surface data collected by the RV Zeeleeuw from 2002-03-21 08:06:56 to 2002-03-21 14:39:55
                                                                                    Next 1000 lines
Time Latitude Longitude Temperature Conductivity Salinity ChlorophylA
2002-03-21 09:07:06 51°14.124 2°53.686 10.369652 3.390202 31.082963  
2002-03-21 09:07:11 51°14.114 2°53.663 10.180826 3.389601 31.075434  
2002-03-21 09:07:16 51°14.106 2°53.639 10.4528 3.386396 31.037183  
2002-03-21 09:07:22 51°14.095 2°53.612 10.606652 3.382689 30.993156  
2002-03-21 09:07:26 51°14.089 2°53.593 10.726756 3.377881 30.935142  
2002-03-21 09:07:31 51°14.08 2°53.57 10.726756 3.377881 30.935142  
2002-03-21 09:07:36 51°14.071 2°53.546 10.605211 3.375477 30.900168  
2002-03-21 09:07:41 51°14.063 2°53.523 10.600704 3.373774 30.875851  
2002-03-21 09:07:46 51°14.055 2°53.5 10.446325 3.374375 30.875621  
2002-03-21 09:07:51 51°14.046 2°53.476 10.558074 3.373974 30.865934  
2002-03-21 09:07:56 51°14.038 2°53.453 10.288827 3.375377 30.876644  
2002-03-21 09:08:02 51°14.027 2°53.425 10.288827 3.375377 30.876644  
2002-03-21 09:08:06 51°14.021 2°53.406 10.363076 3.376478 30.885711  
2002-03-21 09:08:11 51°14.012 2°53.383 10.67084 3.379784 30.919944  
2002-03-21 09:08:16 51°14.004 2°53.36 10.289247 3.384191 30.967478  
2002-03-21 09:08:22 51°13.994 2°53.331 10.328925 3.386996 30.996646  
2002-03-21 09:08:26 51°13.986 2°53.313 10.252348 3.387998 31.008929  
2002-03-21 09:08:32 51°13.977 2°53.285 10.252348 3.387998 31.008929  
2002-03-21 09:08:36 51°13.969 2°53.266 10.824043 3.390302 31.034435  
2002-03-21 09:08:42 51°13.959 2°53.238 10.333452 3.392906 31.060875  
2002-03-21 09:08:46 51°13.952 2°53.22 10.713675 3.394008 31.073478  
2002-03-21 09:08:51 51°13.944 2°53.197 10.220009 3.39481 31.08303  
2002-03-21 09:08:56 51°13.935 2°53.174 10.260244 3.39491 31.082632  
2002-03-21 09:09:02 51°13.924 2°53.147 10.260244 3.39491 31.082632  
2002-03-21 09:09:06 51°13.917 2°53.128 9.953869 3.396012 31.093821  
2002-03-21 09:09:12 51°13.907 2°53.1 10.340544 3.397013 31.103285  
2002-03-21 09:09:16 51°13.9 2°53.081 10.267904 3.397314 31.105628  
2002-03-21 09:09:21 51°13.891 2°53.058 10.458948 3.398516 31.116418  
2002-03-21 09:09:26 51°13.882 2°53.035 10.460904 3.399417 31.124156  
2002-03-21 09:09:31 51°13.874 2°53.012 10.460904 3.399417 31.124156  
2002-03-21 09:09:36 51°13.864 2°52.989 10.451542 3.400118 31.129151  
2002-03-21 09:09:42 51°13.854 2°52.96 10.154161 3.40082 31.135562  
2002-03-21 09:09:46 51°13.846 2°52.941 10.34353 3.40092 31.133744  
2002-03-21 09:09:51 51°13.837 2°52.917 10.305215 3.40132 31.135687  
2002-03-21 09:09:56 51°13.828 2°52.892 10.305215 3.40132 31.135687  
2002-03-21 09:10:01 51°13.819 2°52.867 10.380564 3.402122 31.142406  
2002-03-21 09:10:06 51°13.809 2°52.842 10.186626 3.402923 31.148415  
2002-03-21 09:10:11 51°13.8 2°52.817 10.264541 3.403524 31.155226  
2002-03-21 09:10:16 51°13.79 2°52.792 10.377906 3.404125 31.162038  
2002-03-21 09:10:22 51°13.779 2°52.761 10.530585 3.405227 31.173227  
2002-03-21 09:10:27 51°13.769 2°52.736 10.147984 3.406029 31.181364  
2002-03-21 09:10:31 51°13.762 2°52.715 10.147984 3.406029 31.181364  
2002-03-21 09:10:36 51°13.752 2°52.689 9.992579 3.40693 31.192649  
2002-03-21 09:10:42 51°13.74 2°52.658 10.380984 3.408733 31.211672  
2002-03-21 09:10:46 51°13.733 2°52.638 10.30064 3.410136 31.225916  
2002-03-21 09:10:51 51°13.723 2°52.612 10.337465 3.411137 31.237514  
2002-03-21 09:10:56 51°13.713 2°52.586 10.334712 3.412039 31.246672  
2002-03-21 09:11:02 51°13.701 2°52.555 10.334712 3.412039 31.246672  
2002-03-21 09:11:06 51°13.693 2°52.535 9.988826 3.413642 31.264378  
2002-03-21 09:11:12 51°13.682 2°52.503 10.173249 3.414944 31.278321  
2002-03-21 09:11:16 51°13.674 2°52.483 10.43999 3.415144 31.279645  
2002-03-21 09:11:21 51°13.664 2°52.457 10.095739 3.417048 31.298984  
2002-03-21 09:11:26 51°13.654 2°52.431 10.281776 3.418049 31.311302  
2002-03-21 09:11:32 51°13.643 2°52.399 10.281776 3.418049 31.311302  
2002-03-21 09:11:36 51°13.635 2°52.379 10.557051 3.419452 31.326268  
2002-03-21 09:11:40 51°13.627 2°52.358 10.167355 3.420253 31.335127  
2002-03-21 09:11:46 51°13.615 2°52.327 10.241228 3.422657 31.360992  
2002-03-21 09:11:51 51°13.606 2°52.301 10.321038 3.42436 31.380448  
2002-03-21 09:11:56 51°13.596 2°52.275 10.244732 3.425162 31.392171  
2002-03-21 09:12:02 51°13.584 2°52.244 10.244732 3.425162 31.392171  
2002-03-21 09:12:06 51°13.576 2°52.223 10.170021 3.427165 31.413976  
2002-03-21 09:12:12 51°13.564 2°52.192 10.360604 3.428468 31.429368  
2002-03-21 09:12:16 51°13.557 2°52.171 10.473431 3.429169 31.437216  
2002-03-21 09:12:20 51°13.549 2°52.151 10.210987 3.430672 31.451069  
2002-03-21 09:12:26 51°13.537 2°52.12 9.90781 3.431473 31.460654  
2002-03-21 09:12:31 51°13.527 2°52.094 9.90781 3.431473 31.460654  
2002-03-21 09:12:36 51°13.517 2°52.069 10.259262 3.432575 31.471864  
2002-03-21 09:12:42 51°13.505 2°52.038 10.148405 3.433176 31.477262  
2002-03-21 09:12:46 51°13.497 2°52.018 10.368206 3.434679 31.49255  
2002-03-21 09:12:51 51°13.487 2°51.993 10.504248 3.435881 31.504063  
2002-03-21 09:12:56 51°13.476 2°51.968 10.434399 3.436181 31.506403  
2002-03-21 09:13:01 51°13.465 2°51.944 10.434399 3.436181 31.506403  
2002-03-21 09:13:06 51°13.454 2°51.92 10.55054 3.437283 31.514744  
2002-03-21 09:13:11 51°13.443 2°51.895 10.669633 3.438285 31.521346  
2002-03-21 09:13:16 51°13.432 2°51.871 10.402616 3.439387 31.529685  
2002-03-21 09:13:20 51°13.425 2°51.85 10.367367 3.440088 31.53251  
2002-03-21 09:13:26 51°13.413 2°51.82 10.367367 3.440088 31.53251  
2002-03-21 09:13:31 51°13.402 2°51.794 10.292049 3.440689 31.534317  
2002-03-21 09:13:36 51°13.393 2°51.768 10.444182 3.441691 31.53948  
2002-03-21 09:13:41 51°13.383 2°51.743 10.291629 3.442292 31.542003  
2002-03-21 09:13:46 51°13.373 2°51.717 10.253049 3.442292 31.53985  
2002-03-21 09:13:51 51°13.364 2°51.69 10.408163 3.443594 31.55022  
2002-03-21 09:13:56 51°13.354 2°51.665 10.254684 3.444395 31.555497  
2002-03-21 09:14:01 51°13.345 2°51.638 10.254684 3.444395 31.555497  
2002-03-21 09:14:06 51°13.335 2°51.613 9.952179 3.444996 31.560172  
2002-03-21 09:14:12 51°13.323 2°51.582 9.988638 3.444696 31.556399  
2002-03-21 09:14:16 51°13.315 2°51.561 9.988685 3.445097 31.560472  
2002-03-21 09:14:22 51°13.303 2°51.531 9.719101 3.445598 31.566283  
2002-03-21 09:14:26 51°13.295 2°51.51 10.030187 3.445197 31.561491  
2002-03-21 09:14:31 51°13.285 2°51.485 10.030187 3.445197 31.561491  
2002-03-21 09:14:36 51°13.275 2°51.459 9.760587 3.445397 31.562092  
2002-03-21 09:14:41 51°13.265 2°51.434 9.954808 3.444896 31.557  
2002-03-21 09:14:46 51°13.255 2°51.408 10.490796 3.444796 31.555264  
2002-03-21 09:14:51 51°13.245 2°51.382 10.416552 3.445497 31.560956  
2002-03-21 09:14:56 51°13.235 2°51.357 10.380285 3.446299 31.57054  
2002-03-21 09:15:01 51°13.225 2°51.331 10.380285 3.446299 31.57054  
2002-03-21 09:15:06 51°13.215 2°51.305 10.456945 3.446599 31.572877  
2002-03-21 09:15:11 51°13.204 2°51.281 10.57021 3.4473 31.577851  
2002-03-21 09:15:16 51°13.195 2°51.254 10.298352 3.447401 31.57887  
2002-03-21 09:15:21 51°13.184 2°51.229 10.333732 3.447902 31.582525  
2002-03-21 09:15:27 51°13.173 2°51.198 10.371797 3.448002 31.582107  
2002-03-21 09:15:31 51°13.164 2°51.178 10.371797 3.448002 31.582107  
2002-03-21 09:15:36 51°13.154 2°51.152 10.215335 3.448503 31.58648  
2002-03-21 09:15:41 51°13.144 2°51.126 10.443297 3.448703 31.587798  
2002-03-21 09:15:46 51°13.134 2°51.1 10.366341 3.449404 31.594927  
2002-03-21 09:15:51 51°13.125 2°51.075 10.213979 3.450606 31.607147  
2002-03-21 09:15:55 51°13.116 2°51.054 10.521513 3.451809 31.622245  
2002-03-21 09:16:01 51°13.104 2°51.023 10.521513 3.451809 31.622245  
2002-03-21 09:16:06 51°13.095 2°50.997 10.677293 3.45261 31.630394  
2002-03-21 09:16:12 51°13.082 2°50.966 10.22029 3.453912 31.645795  
2002-03-21 09:16:16 51°13.075 2°50.946 10.44912 3.454814 31.656404  
2002-03-21 09:16:22 51°13.062 2°50.915 10.524584 3.456216 31.672829  
2002-03-21 09:16:26 51°13.055 2°50.894 10.413104 3.457318 31.683317  
2002-03-21 09:16:31 51°13.044 2°50.869 10.413104 3.457318 31.683317  
2002-03-21 09:16:36 51°13.035 2°50.842 10.220711 3.45812 31.691469  
2002-03-21 09:16:40 51°13.026 2°50.822 10.182183 3.45812 31.691469  
2002-03-21 09:16:46 51°13.014 2°50.791 10.527096 3.45832 31.692786  
2002-03-21 09:16:51 51°13.004 2°50.765 10.296204 3.460023 31.707946  
2002-03-21 09:16:56 51°12.994 2°50.74 10.298539 3.460825 31.716098  
2002-03-21 09:17:02 51°12.982 2°50.709 10.298539 3.460825 31.716098  
2002-03-21 09:17:06 51°12.974 2°50.688 10.758057 3.461526 31.723232  
2002-03-21 09:17:11 51°12.964 2°50.662 10.15126 3.462027 31.727606  
2002-03-21 09:17:16 51°12.953 2°50.637 10.228236 3.462528 31.732701  
2002-03-21 09:17:22 51°12.942 2°50.605 10.151821 3.463029 31.737797  
2002-03-21 09:17:26 51°12.933 2°50.586 10.382896 3.463429 31.740429  
2002-03-21 09:17:31 51°12.923 2°50.56 10.382896 3.463429 31.740429  
2002-03-21 09:17:36 51°12.913 2°50.534 10.381917 3.46353 31.741448  
2002-03-21 09:17:42 51°12.9 2°50.503 10.269679 3.463129 31.737372  
2002-03-21 09:17:46 51°12.893 2°50.483 10.19322 3.463129 31.735207  
2002-03-21 09:17:51 51°12.882 2°50.457 10.425639 3.463129 31.733763  
2002-03-21 09:17:56 51°12.873 2°50.43 10.27491 3.463229 31.732617  
2002-03-21 09:18:02 51°12.86 2°50.4 10.27491 3.463229 31.732617  
2002-03-21 09:18:06 51°12.853 2°50.379 10.618965 3.463329 31.733636  
2002-03-21 09:18:11 51°12.842 2°50.354 10.390822 3.463129 31.731598  
2002-03-21 09:18:16 51°12.832 2°50.328 10.125612 3.463529 31.735674  
2002-03-21 09:18:22 51°12.82 2°50.297 10.393293 3.46363 31.735249  
2002-03-21 09:18:26 51°12.812 2°50.276 10.394225 3.46383 31.735844  
2002-03-21 09:18:32 51°12.8 2°50.246 10.394225 3.46383 31.735844  
2002-03-21 09:18:36 51°12.792 2°50.225 10.27916 3.46403 31.73716  
2002-03-21 09:18:42 51°12.78 2°50.193 10.548168 3.464631 31.742551  
2002-03-21 09:18:46 51°12.772 2°50.173 10.357199 3.465132 31.746202  
2002-03-21 09:18:51 51°12.763 2°50.147 10.433048 3.465333 31.746074  
2002-03-21 09:18:56 51°12.753 2°50.121 10.432768 3.466234 31.754521  
2002-03-21 09:19:02 51°12.741 2°50.09 10.432768 3.466234 31.754521  
2002-03-21 09:19:06 51°12.732 2°50.07 10.242536 3.467837 31.7701  
2002-03-21 09:19:11 51°12.723 2°50.044 10.435424 3.468639 31.777528  
2002-03-21 09:19:15 51°12.714 2°50.023 10.247536 3.469941 31.788605  
2002-03-21 09:19:21 51°12.703 2°49.992 10.098456 3.470442 31.795145  
2002-03-21 09:19:26 51°12.692 2°49.966 10.596939 3.471844 31.80941  
2002-03-21 09:19:31 51°12.682 2°49.94 10.596939 3.471844 31.80941  
2002-03-21 09:19:36 51°12.673 2°49.914 10.101687 3.473547 31.826009  
2002-03-21 09:19:42 51°12.661 2°49.883 10.335178 3.475251 31.844057  
2002-03-21 09:19:46 51°12.652 2°49.863 10.069274 3.476353 31.854543  
2002-03-21 09:19:51 51°12.643 2°49.836 10.413709 3.477555 31.865325  
2002-03-21 09:19:56 51°12.633 2°49.811 10.418183 3.478657 31.874362  
2002-03-21 09:20:01 51°12.622 2°49.785 10.418183 3.478657 31.874362  
2002-03-21 09:20:06 51°12.612 2°49.758 10.266737 3.48056 31.890827  
2002-03-21 09:20:11 51°12.602 2°49.733 10.458296 3.483566 31.919227  
2002-03-21 09:20:16 51°12.591 2°49.707 10.190367 3.485369 31.936847  
2002-03-21 09:20:21 51°12.581 2°49.681 10.603538 3.487974 31.960444  
2002-03-21 09:20:26 51°12.571 2°49.655 10.326079 3.490378 31.982728  
2002-03-21 09:20:31 51°12.561 2°49.629 10.326079 3.490378 31.982728  
2002-03-21 09:20:36 51°12.55 2°49.603 10.355053 3.492983 32.008505  
2002-03-21 09:20:42 51°12.538 2°49.572 10.111005 3.496289 32.039965  
2002-03-21 09:20:46 51°12.53 2°49.552 10.367087 3.501499 32.090799  
2002-03-21 09:20:51 51°12.52 2°49.525 10.201169 3.505205 32.12926  
2002-03-21 09:20:56 51°12.509 2°49.499 10.308809 3.510315 32.184205  
2002-03-21 09:21:02 51°12.497 2°49.468 10.308809 3.510315 32.184205  
2002-03-21 09:21:06 51°12.489 2°49.447 10.260384 3.514623 32.233206  
2002-03-21 09:21:11 51°12.479 2°49.421 10.135114 3.519633 32.290112  
2002-03-21 09:21:16 51°12.468 2°49.396 10.203647 3.524141 32.34415  
2002-03-21 09:21:22 51°12.456 2°49.364 9.975033 3.527848 32.392997  
2002-03-21 09:21:26 51°12.447 2°49.344 9.960768 3.531255 32.435865  
2002-03-21 09:21:32 51°12.435 2°49.313 9.960768 3.531255 32.435865  
2002-03-21 09:21:36 51°12.427 2°49.291 10.301433 3.53396 32.473078  
2002-03-21 09:21:41 51°12.416 2°49.266 10.032766 3.536265 32.508445  
2002-03-21 09:21:46 51°12.406 2°49.24 9.641191 3.538469 32.53837  
2002-03-21 09:21:50 51°12.398 2°49.219 9.872856 3.539972 32.560401  
2002-03-21 09:21:57 51°12.385 2°49.182 9.795883 3.541074 32.578345  
2002-03-21 09:22:02 51°12.376 2°49.155 9.795883 3.541074 32.578345  
2002-03-21 09:22:06 51°12.368 2°49.134 9.790237 3.542878 32.602726  
2002-03-21 09:22:11 51°12.36 2°49.106 9.984276 3.544381 32.625531  
2002-03-21 09:22:16 51°12.352 2°49.079 10.24861 3.545282 32.638475  
2002-03-21 09:22:22 51°12.341 2°49.046 10.136378 3.546785 32.657574  
2002-03-21 09:22:26 51°12.335 2°49.024 10.132587 3.547887 32.669596  
2002-03-21 09:22:31 51°12.326 2°48.997 10.132587 3.547887 32.669596  
2002-03-21 09:22:36 51°12.318 2°48.969 10.24548 3.54899 32.68311  
2002-03-21 09:22:42 51°12.308 2°48.936 10.207808 3.550392 32.698957  
2002-03-21 09:22:46 51°12.3 2°48.915 10.507459 3.551795 32.717046  
2002-03-21 09:22:51 51°12.292 2°48.887 10.163565 3.552997 32.730847  
2002-03-21 09:22:56 51°12.283 2°48.86 10.161974 3.553398 32.736444  
2002-03-21 09:23:02 51°12.273 2°48.828 10.161974 3.553398 32.736444  
2002-03-21 09:23:06 51°12.265 2°48.806 9.934247 3.5544 32.74745  
2002-03-21 09:23:12 51°12.255 2°48.773 10.315904 3.555302 32.758925  
2002-03-21 09:23:16 51°12.247 2°48.752 10.278133 3.555903 32.765081  
2002-03-21 09:23:20 51°12.241 2°48.73 10.276872 3.556805 32.778056  
2002-03-21 09:23:26 51°12.23 2°48.698 10.009744 3.557206 32.782908  
2002-03-21 09:23:31 51°12.221 2°48.671 10.009744 3.557206 32.782908  
2002-03-21 09:23:36 51°12.212 2°48.644 10.0089 3.557707 32.788788  
2002-03-21 09:23:41 51°12.202 2°48.617 9.816769 3.557807 32.791311  
2002-03-21 09:23:46 51°12.194 2°48.589 10.123786 3.558608 32.797276  
2002-03-21 09:23:51 51°12.184 2°48.563 10.198363 3.559009 32.80213  
2002-03-21 09:23:56 51°12.176 2°48.535 10.429414 3.559811 32.811839  
2002-03-21 09:24:01 51°12.167 2°48.508 10.429414 3.559811 32.811839  
2002-03-21 09:24:06 51°12.158 2°48.481 10.238751 3.559711 32.811561  
2002-03-21 09:24:11 51°12.149 2°48.453 9.967432 3.560111 32.815667  
2002-03-21 09:24:16 51°12.14 2°48.426 10.016872 3.560111 32.814169  
2002-03-21 09:24:22 51°12.13 2°48.393 10.196306 3.560412 32.817248  
2002-03-21 09:24:26 51°12.123 2°48.371 10.347962 3.560612 32.821549  
2002-03-21 09:24:31 51°12.114 2°48.344 10.347962 3.560612 32.821549  
2002-03-21 09:24:36 51°12.105 2°48.316 9.965367 3.560712 32.823324  
2002-03-21 09:24:42 51°12.094 2°48.284 10.156734 3.561013 32.825655  
2002-03-21 09:24:46 51°12.087 2°48.262 10.07958 3.561213 32.827708  
2002-03-21 09:24:52 51°12.076 2°48.229 10.077659 3.561614 32.834062  
2002-03-21 09:24:56 51°12.069 2°48.207 10.155143 3.561714 32.836588  
2002-03-21 09:25:02 51°12.058 2°48.175 10.155143 3.561714 32.836588  
2002-03-21 09:25:06 51°12.051 2°48.153 10.387139 3.562115 32.841445  
2002-03-21 09:25:12 51°12.04 2°48.12 10.083234 3.563017 32.850685  
2002-03-21 09:25:16 51°12.033 2°48.098 10.274817 3.563819 32.85965  
2002-03-21 09:25:22 51°12.022 2°48.066 10.079768 3.56442 32.866561  
2002-03-21 09:25:26 51°12.015 2°48.044 10.042188 3.565422 32.87608  
2002-03-21 09:25:32 51°12.004 2°48.011 10.042188 3.565422 32.87608  
2002-03-21 09:25:36 51°11.997 2°47.989 9.769389 3.566524 32.888878  
2002-03-21 09:25:41 51°11.989 2°47.961 10.002757 3.567025 32.893262  
2002-03-21 09:25:46 51°11.979 2°47.935 10.290881 3.567325 32.894841  
2002-03-21 09:25:51 51°11.971 2°47.907 10.0021 3.567726 32.898949  
2002-03-21 09:25:56 51°11.962 2°47.88 10.333359 3.569029 32.9123  
2002-03-21 09:26:01 51°11.953 2°47.853 10.333359 3.569029 32.9123  
2002-03-21 09:26:06 51°11.945 2°47.825 10.003366 3.568327 32.905862  
2002-03-21 09:26:11 51°11.935 2°47.798 10.4255 3.568528 32.908668  
2002-03-21 09:26:16 51°11.927 2°47.771 10.206967 3.568428 32.908392  
2002-03-21 09:26:22 51°11.916 2°47.738 10.464164 3.569029 32.914554  
2002-03-21 09:26:26 51°11.908 2°47.716 10.08389 3.569129 32.914079  
2002-03-21 09:26:32 51°11.898 2°47.683 10.08389 3.569129 32.914079  
2002-03-21 09:26:36 51°11.891 2°47.661 10.003273 3.56953 32.91969  
2002-03-21 09:26:42 51°11.88 2°47.628 10.311797 3.56973 32.920993  
2002-03-21 09:26:46 51°11.873 2°47.607 10.005524 3.56953 32.918939  
2002-03-21 09:26:52 51°11.863 2°47.574 10.199018 3.56983 32.921268  
2002-03-21 09:26:56 51°11.855 2°47.552 10.31315 3.56973 32.920241  
2002-03-21 09:27:01 51°11.847 2°47.525 10.31315 3.56973 32.920241  
2002-03-21 09:27:06 51°11.838 2°47.497 9.929458 3.56983 32.921268  
2002-03-21 09:27:11 51°11.829 2°47.47 10.238517 3.56993 32.923047  
2002-03-21 09:27:16 51°11.82 2°47.442 10.125893 3.56993 32.921544  
2002-03-21 09:27:21 51°11.811 2°47.415 10.584669 3.56993 32.922295  
2002-03-21 09:27:26 51°11.803 2°47.388 10.168384 3.570231 32.925377  
2002-03-21 09:27:31 51°11.794 2°47.361 10.168384 3.570231 32.925377  
2002-03-21 09:27:36 51°11.785 2°47.333 10.28271 3.570331 32.925652  
2002-03-21 09:27:41 51°11.777 2°47.306 9.977191 3.570732 32.929009  
2002-03-21 09:27:46 51°11.767 2°47.279 9.939646 3.571033 32.930587  
2002-03-21 09:27:51 51°11.759 2°47.251 10.326639 3.571233 32.931889  
2002-03-21 09:27:56 51°11.75 2°47.224 10.171144 3.571433 32.933192  
2002-03-21 09:28:02 51°11.739 2°47.191 10.171144 3.571433 32.933192  
2002-03-21 09:28:06 51°11.732 2°47.168 10.285605 3.571333 32.930661  
2002-03-21 09:28:11 51°11.723 2°47.141 10.403129 3.571333 32.928406  
2002-03-21 09:28:16 51°11.715 2°47.114 10.288827 3.571533 32.929709  
2002-03-21 09:28:22 51°11.704 2°47.081 10.368953 3.571934 32.932313  
2002-03-21 09:28:26 51°11.697 2°47.059 9.906682 3.572034 32.93334  
2002-03-21 09:28:32 51°11.687 2°47.026 9.906682 3.572034 32.93334  
2002-03-21 09:28:36 51°11.679 2°47.004 10.324585 3.572535 32.937723  
2002-03-21 09:28:42 51°11.669 2°46.971 10.097098 3.572836 32.940803  
2002-03-21 09:28:46 51°11.662 2°46.95 9.943683 3.572535 32.936971  
2002-03-21 09:28:52 51°11.651 2°46.917 9.790425 3.572535 32.936219  
2002-03-21 09:28:56 51°11.643 2°46.895 9.943871 3.572636 32.937246  
2002-03-21 09:29:01 51°11.635 2°46.867 9.943871 3.572636 32.937246  
2002-03-21 09:29:06 51°11.626 2°46.84 9.908702 3.572936 32.938072  
2002-03-21 09:29:11 51°11.617 2°46.813 9.561488 3.572435 32.934441  
2002-03-21 09:29:16 51°11.609 2°46.785 9.485847 3.572435 32.935192  
2002-03-21 09:29:21 51°11.6 2°46.758 9.99014 3.572535 32.935468  
2002-03-21 09:29:26 51°11.591 2°46.73 10.107728 3.572435 32.933689  
2002-03-21 09:29:31 51°11.583 2°46.703 10.107728 3.572435 32.933689  
2002-03-21 09:29:36 51°11.574 2°46.675 10.108055 3.572535 32.935468  
2002-03-21 09:29:41 51°11.566 2°46.646 10.031359 3.572235 32.930133  
2002-03-21 09:29:46 51°11.558 2°46.619 9.995581 3.572836 32.937045  
2002-03-21 09:29:51 51°11.551 2°46.59 10.071663 3.573036 32.936844  
2002-03-21 09:29:57 51°11.542 2°46.555 10.146767 3.573437 32.940199  
2002-03-21 09:30:02 51°11.535 2°46.526 10.146767 3.573437 32.940199  
2002-03-21 09:30:06 51°11.53 2°46.503 10.375761 3.573337 32.937669  
2002-03-21 09:30:12 51°11.522 2°46.468 10.145831 3.573437 32.937193  
2002-03-21 09:30:16 51°11.517 2°46.445 10.067868 3.573437 32.93569  
2002-03-21 09:30:20 51°11.512 2°46.421 10.603724 3.573437 32.93569  
2002-03-21 09:30:26 51°11.504 2°46.386 10.451496 3.573537 32.934463  
2002-03-21 09:30:31 51°11.497 2°46.357 10.451496 3.573537 32.934463  
2002-03-21 09:30:36 51°11.49 2°46.328 10.336018 3.573637 32.936241  
2002-03-21 09:30:42 51°11.481 2°46.294 10.068243 3.574239 32.941648  
2002-03-21 09:30:46 51°11.476 2°46.27 10.222767 3.573637 32.937743  
2002-03-21 09:30:51 51°11.469 2°46.241 10.070398 3.573738 32.938018  
2002-03-21 09:30:56 51°11.462 2°46.212 9.88014 3.573136 32.933362  
2002-03-21 09:31:02 51°11.454 2°46.177 9.88014 3.573136 32.933362  
2002-03-21 09:31:06 51°11.448 2°46.154 10.147844 3.573938 32.941575  
2002-03-21 09:31:11 51°11.441 2°46.125 10.111567 3.573637 32.938495  
2002-03-21 09:31:16 51°11.433 2°46.096 10.37828 3.573637 32.937743  
2002-03-21 09:31:21 51°11.426 2°46.068 10.110912 3.573537 32.936717  
2002-03-21 09:31:26 51°11.419 2°46.039 10.110771 3.573637 32.937743  
2002-03-21 09:31:32 51°11.41 2°46.004 10.110771 3.573637 32.937743  
2002-03-21 09:31:36 51°11.404 2°45.981 10.151166 3.574038 32.940347  
2002-03-21 09:31:40 51°11.399 2°45.958 10.421539 3.573838 32.936791  
2002-03-21 09:31:46 51°11.39 2°45.923 10.269586 3.573838 32.937542  
2002-03-21 09:31:51 51°11.383 2°45.894 10.078081 3.574239 32.940146  
2002-03-21 09:31:56 51°11.376 2°45.866 10.114142 3.574038 32.938844  
2002-03-21 09:32:02 51°11.367 2°45.831 10.114142 3.574038 32.938844  
2002-03-21 09:32:06 51°11.361 2°45.808 10.457225 3.573838 32.93604  
2002-03-21 09:32:12 51°11.353 2°45.772 10.253469 3.574038 32.937341  
2002-03-21 09:32:16 51°11.346 2°45.75 10.191489 3.573738 32.933511  
2002-03-21 09:32:20 51°11.342 2°45.726 10.496522 3.574339 32.939669  
2002-03-21 09:32:26 51°11.333 2°45.692 10.110584 3.574138 32.936114  
2002-03-21 09:32:31 51°11.326 2°45.662 10.110584 3.574138 32.936114  
2002-03-21 09:32:36 51°11.319 2°45.633 10.14761 3.57484 32.94405  
2002-03-21 09:32:41 51°11.311 2°45.604 10.263233 3.574539 32.941722  
2002-03-21 09:32:46 51°11.305 2°45.575 10.033609 3.574539 32.941722  
2002-03-21 09:32:51 51°11.297 2°45.547 10.301293 3.574539 32.941722  
2002-03-21 09:32:56 51°11.29 2°45.517 10.113299 3.57484 32.94405  
2002-03-21 09:33:02 51°11.282 2°45.483 10.113299 3.57484 32.94405  
2002-03-21 09:33:06 51°11.276 2°45.459 10.033141 3.57474 32.94603  
2002-03-21 09:33:12 51°11.267 2°45.425 10.109366 3.574239 32.9424  
2002-03-21 09:33:16 51°11.262 2°45.402 10.071241 3.57494 32.947331  
2002-03-21 09:33:20 51°11.256 2°45.378 10.491588 3.57484 32.947056  
2002-03-21 09:33:26 51°11.248 2°45.344 10.413616 3.57484 32.949311  
2002-03-21 09:33:31 51°11.241 2°45.315 10.413616 3.57484 32.949311  
2002-03-21 09:33:36 51°11.234 2°45.286 10.336392 3.575241 32.952666  
2002-03-21 09:33:41 51°11.227 2°45.257 10.181388 3.57514 32.952391  
2002-03-21 09:33:46 51°11.22 2°45.228 10.563236 3.575241 32.952666  
2002-03-21 09:33:51 51°11.212 2°45.199 10.678824 3.575341 32.953692  
2002-03-21 09:33:56 51°11.205 2°45.17 10.488702 3.575241 32.953417  
2002-03-21 09:34:02 51°11.196 2°45.135 10.488702 3.575241 32.953417  
2002-03-21 09:34:06 51°11.191 2°45.112 10.069883 3.575341 32.955948  
2002-03-21 09:34:11 51°11.184 2°45.083 10.069976 3.575441 32.957726  
2002-03-21 09:34:16 51°11.176 2°45.055 10.300686 3.57494 32.951841  
2002-03-21 09:34:22 51°11.168 2°45.02 10.070866 3.575742 32.960806  
2002-03-21 09:34:26 51°11.162 2°44.997 10.068336 3.575742 32.961558  
2002-03-21 09:34:31 51°11.155 2°44.968 10.068336 3.575742 32.961558  
2002-03-21 09:34:36 51°11.149 2°44.938 10.106697 3.575942 32.962108  
2002-03-21 09:34:42 51°11.141 2°44.903 10.109366 3.576042 32.961631  
2002-03-21 09:34:46 51°11.137 2°44.879 10.18569 3.576042 32.961631  
2002-03-21 09:34:51 51°11.132 2°44.849 10.186673 3.576243 32.965188  
2002-03-21 09:34:56 51°11.127 2°44.819 10.262813 3.576343 32.964711  
2002-03-21 09:35:02 51°11.122 2°44.783 10.262813 3.576343 32.964711  
2002-03-21 09:35:06 51°11.119 2°44.758 10.146955 3.576443 32.965737  
2002-03-21 09:35:12 51°11.116 2°44.721 10.339938 3.576543 32.966764  
2002-03-21 09:35:16 51°11.114 2°44.697 10.451915 3.576844 32.969092  
2002-03-21 09:35:22 51°11.111 2°44.66 10.260664 3.576844 32.969844  
2002-03-21 09:35:27 51°11.109 2°44.629 10.108477 3.577645 32.976553  
2002-03-21 09:35:31 51°11.108 2°44.604 10.108477 3.577645 32.976553  
2002-03-21 09:35:36 51°11.106 2°44.573 10.30078 3.577244 32.973951  
2002-03-21 09:35:42 51°11.104 2°44.536 10.258795 3.577645 32.977306  
2002-03-21 09:35:46 51°11.102 2°44.512 10.183492 3.577244 32.972447  
2002-03-21 09:35:51 51°11.1 2°44.481 10.144989 3.577244 32.975456  
2002-03-21 09:35:56 51°11.099 2°44.45 10.108196 3.576844 32.971348  
2002-03-21 09:36:02 51°11.097 2°44.412 10.108196 3.576844 32.971348  
2002-03-21 09:36:06 51°11.095 2°44.388 10.146346 3.576643 32.968543  
2002-03-21 09:36:11 51°11.094 2°44.357 10.145223 3.576643 32.969295  
2002-03-21 09:36:16 51°11.093 2°44.326 9.72334 3.576944 32.973127  
2002-03-21 09:36:22 51°11.093 2°44.288 9.837414 3.576744 32.971074  
2002-03-21 09:36:27 51°11.092 2°44.257 9.913633 3.576844 32.971348  
2002-03-21 09:36:31 51°11.092 2°44.232 9.913633 3.576844 32.971348  
2002-03-21 09:36:36 51°11.092 2°44.201 9.795977 3.576042 32.964639  
2002-03-21 09:36:41 51°11.092 2°44.17 9.987278 3.576543 32.968268  
2002-03-21 09:36:46 51°11.092 2°44.139 9.905555 3.576042 32.962383  
2002-03-21 09:36:52 51°11.092 2°44.102 9.853116 3.576042 32.963887  
2002-03-21 09:36:57 51°11.092 2°44.07 9.937721 3.576944 32.972375  
2002-03-21 09:37:02 51°11.093 2°44.039 9.937721 3.576944 32.972375  
2002-03-21 09:37:06 51°11.093 2°44.014 10.320198 3.576543 32.96902  
2002-03-21 09:37:11 51°11.092 2°43.983 10.391708 3.576844 32.973605  
2002-03-21 09:37:16 51°11.092 2°43.952 10.233657 3.576343 32.970728  
2002-03-21 09:37:22 51°11.092 2°43.915 10.499594 3.576543 32.975039  
2002-03-21 09:37:26 51°11.092 2°43.89 10.416273 3.576343 32.975242  
2002-03-21 09:37:31 51°11.092 2°43.859 10.416273 3.576343 32.975242  
2002-03-21 09:37:36 51°11.091 2°43.827 9.838495 3.576142 32.974693  
2002-03-21 09:37:42 51°11.091 2°43.79 10.171237 3.576042 32.975924  
2002-03-21 09:37:46 51°11.091 2°43.765 9.858569 3.576143 32.980715  
2002-03-21 09:37:52 51°11.091 2°43.728 10.309649 3.575942 32.981672  
2002-03-21 09:37:56 51°11.091 2°43.703 10.068336 3.575441 32.981806  
2002-03-21 09:38:02 51°11.091 2°43.666 10.068336 3.575441 32.981806  
2002-03-21 09:38:06 51°11.091 2°43.641 10.02564 3.575041 32.980709  
2002-03-21 09:38:11 51°11.091 2°43.61 10.254404 3.57464 32.979611  
2002-03-21 09:38:16 51°11.091 2°43.579 10.242676 3.57474 32.987419  
2002-03-21 09:38:22 51°11.09 2°43.542 10.277806 3.574039 32.987006  
2002-03-21 09:38:26 51°11.09 2°43.517 10.12079 3.574039 32.993037  
2002-03-21 09:38:31 51°11.09 2°43.486 10.12079 3.574039 32.993037  
2002-03-21 09:38:36 51°11.09 2°43.455 10.19336 3.573237 32.993105  
2002-03-21 09:38:42 51°11.09 2°43.417 10.377813 3.572636 32.992968  
2002-03-21 09:38:47 51°11.09 2°43.386 10.035766 3.572336 32.994409  
2002-03-21 09:38:52 51°11.089 2°43.355 9.869473 3.571935 32.998594  
2002-03-21 09:38:56 51°11.089 2°43.33 9.901891 3.571234 32.996675  
2002-03-21 09:39:01 51°11.089 2°43.299 9.901891 3.571234 32.996675  
2002-03-21 09:39:06 51°11.089 2°43.268 10.014012 3.571033 32.998392  
2002-03-21 09:39:11 51°11.089 2°43.237 9.735303 3.570032 32.994139  
2002-03-21 09:39:16 51°11.088 2°43.206 10.112363 3.570032 32.99867  
2002-03-21 09:39:20 51°11.089 2°43.181 10.186766 3.570032 32.99867  
2002-03-21 09:39:26 51°11.088 2°43.144 10.029531 3.569631 32.999084  
2002-03-21 09:39:31 51°11.088 2°43.113 10.029531 3.569631 32.999084  
2002-03-21 09:39:36 51°11.088 2°43.082 10.171892 3.569431 33.003069  
2002-03-21 09:39:42 51°11.088 2°43.045 10.093819 3.568429 33.001839  
2002-03-21 09:39:46 51°11.087 2°43.02 9.858992 3.568729 33.007954  
2002-03-21 09:39:52 51°11.088 2°42.983 10.083749 3.567627 33.004182  
2002-03-21 09:39:56 51°11.087 2°42.958 9.962598 3.567327 33.002604  
2002-03-21 09:40:02 51°11.087 2°42.921 9.962598 3.567327 33.002604  
2002-03-21 09:40:07 51°11.087 2°42.89 10.341804 3.566125 32.998557  
2002-03-21 09:40:11 51°11.087 2°42.865 10.183679 3.566726 33.007766  
2002-03-21 09:40:16 51°11.087 2°42.834 10.026624 3.565824 33.003786  
2002-03-21 09:40:22 51°11.087 2°42.797 9.942228 3.565724 33.006539  
2002-03-21 09:40:26 51°11.087 2°42.772 9.907199 3.565624 33.010806  
2002-03-21 09:40:32 51°11.087 2°42.735 9.907199 3.565624 33.010806  
2002-03-21 09:40:36 51°11.087 2°42.71 9.784496 3.565123 33.01095  
2002-03-21 09:40:42 51°11.088 2°42.673 9.897335 3.564822 33.013914  
2002-03-21 09:40:46 51°11.089 2°42.649 9.897335 3.564622 33.015639  
2002-03-21 09:40:51 51°11.09 2°42.618 10.130808 3.564321 33.018605  
2002-03-21 09:40:56 51°11.092 2°42.587 9.895503 3.563921 33.016751  
2002-03-21 09:41:02 51°11.092 2°42.55 9.895503 3.563921 33.016751  
2002-03-21 09:41:06 51°11.093 2°42.525 9.968089 3.564322 33.023152  
2002-03-21 09:41:12 51°11.092 2°42.488 9.775508 3.564221 33.025911  
2002-03-21 09:41:16 51°11.092 2°42.463 10.079721 3.564021 33.024605  
2002-03-21 09:41:20 51°11.091 2°42.438 10.121446 3.56342 33.020687  
2002-03-21 09:41:26 51°11.092 2°42.401 9.966212 3.687971 34.237971  
2002-03-21 09:41:31 51°11.092 2°42.371 9.966212 3.687971 34.237971  
2002-03-21 09:41:36 51°11.092 2°42.34 9.891604 3.56332 33.024204  
2002-03-21 09:41:42 51°11.094 2°42.302 9.930397 3.56322 33.025447  
2002-03-21 09:41:46 51°11.094 2°42.278 9.93143 3.56332 33.028755  
2002-03-21 09:41:51 51°11.095 2°42.247 9.780637 3.56322 33.028481  
2002-03-21 09:41:56 51°11.095 2°42.216 10.047999 3.562919 33.027659  
2002-03-21 09:42:02 51°11.096 2°42.183 10.047999 3.562919 33.027659  
2002-03-21 09:42:06 51°11.096 2°42.162 9.820202 3.563119 33.029724  
2002-03-21 09:42:11 51°11.097 2°42.138 9.937393 3.56332 33.03103  
2002-03-21 09:42:17 51°11.098 2°42.111 10.163144 3.563119 33.027448  
2002-03-21 09:42:22 51°11.1 2°42.091 9.625626 3.563119 33.027448  
2002-03-21 09:42:26 51°11.101 2°42.075 9.736433 3.56342 33.029787  
2002-03-21 09:42:31 51°11.102 2°42.057 9.736433 3.56342 33.029787  
2002-03-21 09:42:36 51°11.104 2°42.04 10.12168 3.56322 33.027722  
2002-03-21 09:42:42 51°11.107 2°42.021 9.85086 3.563019 33.023382  
2002-03-21 09:42:46 51°11.109 2°42.01 9.77146 3.56352 33.027785  
2002-03-21 09:42:51 51°11.112 2°41.996 10.002288 3.563721 33.029091  
2002-03-21 09:42:57 51°11.115 2°41.982 9.885919 3.563821 33.030124  
2002-03-21 09:43:02 51°11.118 2°41.971 9.885919 3.563821 33.030124  
2002-03-21 09:43:06 51°11.119 2°41.963 9.810231 3.56352 33.029302  
2002-03-21 09:43:12 51°11.122 2°41.955 10.005571 3.56352 33.030819  
2002-03-21 09:43:16 51°11.124 2°41.949 10.156921 3.56342 33.032063  
2002-03-21 09:43:22 51°11.126 2°41.943 10.120229 3.563821 33.036951  
2002-03-21 09:43:27 51°11.127 2°41.94 9.80835 3.56362 33.036404  
2002-03-21 09:43:31 51°11.127 2°41.937 9.80835 3.56362 33.036404  
2002-03-21 09:43:36 51°11.127 2°41.937 9.693236 3.56362 33.037163  
2002-03-21 09:43:41 51°11.127 2°41.937 9.61336 3.56342 33.035857  
2002-03-21 09:43:46 51°11.127 2°41.936 9.34283 3.56342 33.035098  
2002-03-21 09:43:51 51°11.127 2°41.936 9.690078 3.56352 33.03613  
2002-03-21 09:43:56 51°11.127 2°41.936 9.497334 3.563821 33.039987  
2002-03-21 09:44:02 51°11.127 2°41.936 9.497334 3.563821 33.039987  
2002-03-21 09:44:08 51°11.127 2°41.935 9.691162 3.56332 33.035583  
2002-03-21 09:44:12 51°11.127 2°41.935 9.6152 3.563821 33.041505  
2002-03-21 09:44:17 51°11.127 2°41.935 10.077097 3.56362 33.039439  
2002-03-21 09:44:22 51°11.127 2°41.934 10.03736 3.56342 33.038892  
2002-03-21 09:44:27 51°11.127 2°41.934 10.186906 3.563621 33.042476  
2002-03-21 09:44:33 51°11.127 2°41.934 10.186906 3.563621 33.042476  
2002-03-21 09:44:37 51°11.127 2°41.933 10.110865 3.56312 33.035794  
2002-03-21 09:44:42 51°11.127 2°41.933 9.649491 3.56342 33.038892  
2002-03-21 09:44:46 51°11.127 2°41.932 10.339424 3.56352 33.040684  
2002-03-21 09:44:51 51°11.127 2°41.932 10.571698 3.56312 33.036553  
2002-03-21 09:44:56 51°11.127 2°41.931 9.996847 3.562919 33.035247  
2002-03-21 09:45:02 51°11.127 2°41.93 9.996847 3.562919 33.035247  
2002-03-21 09:45:07 51°11.127 2°41.93 9.918283 3.56332 33.039378  
2002-03-21 09:45:12 51°11.128 2°41.929 10.149014 3.56342 33.041929  
2002-03-21 09:45:16 51°11.128 2°41.928 10.150277 3.56332 33.042414  
2002-03-21 09:45:22 51°11.129 2°41.927 9.954385 3.56322 33.041381  
2002-03-21 09:45:26 51°11.129 2°41.926 9.028048 3.56312 33.039589  
2002-03-21 09:45:31 51°11.13 2°41.926 9.028048 3.56312 33.039589  
2002-03-21 09:45:36 51°11.13 2°41.925 9.017573 3.562719 33.036977  
2002-03-21 09:45:41 51°11.131 2°41.924 9.055845 3.563019 33.040075  
2002-03-21 09:45:46 51°11.132 2°41.924 9.017859 3.56322 33.041381  
2002-03-21 09:45:52 51°11.133 2°41.923 9.018383 3.563821 33.048337  
2002-03-21 09:45:56 51°11.134 2°41.923 9.060033 3.56352 33.042961  
2002-03-21 09:46:02 51°11.135 2°41.922 9.060033 3.56352 33.042961  
2002-03-21 09:46:06 51°11.136 2°41.921 9.030286 3.56332 33.039378  
2002-03-21 09:46:11 51°11.137 2°41.92 9.044423 3.562919 33.036765  
2002-03-21 09:46:16 51°11.138 2°41.919 9.04785 3.56332 33.040137  
2002-03-21 09:46:22 51°11.139 2°41.918 9.119724 3.56322 33.042141  
2002-03-21 09:46:26 51°11.14 2°41.917 9.032951 3.562619 33.036703  
2002-03-21 09:46:31 51°11.141 2°41.916 9.032951 3.562619 33.036703  
2002-03-21 09:46:36 51°11.143 2°41.915 9.029 3.563019 33.038557  
2002-03-21 09:46:41 51°11.144 2°41.914 9.030714 3.562518 33.028081  
2002-03-21 09:46:47 51°11.146 2°41.912 9.030238 3.562919 33.027659  
2002-03-21 09:46:52 51°11.147 2°41.911 9.028238 3.56322 33.025447  
2002-03-21 09:46:56 51°11.148 2°41.91 9.14387 3.563721 33.029091  
2002-03-21 09:47:02 51°11.15 2°41.908 9.14387 3.563721 33.029091  
2002-03-21 09:47:07 51°11.152 2°41.907 9.027334 3.564021 33.034464  
2002-03-21 09:47:12 51°11.154 2°41.905 9.026953 3.56332 33.03103  
2002-03-21 09:47:16 51°11.155 2°41.904 9.026477 3.563119 33.031241  
2002-03-21 09:47:22 51°11.157 2°41.902 9.027905 3.562919 33.028418  
2002-03-21 09:47:26 51°11.158 2°41.901 9.026334 3.56332 33.035583  
2002-03-21 09:47:31 51°11.16 2°41.899 9.026334 3.56332 33.035583  
2002-03-21 09:47:36 51°11.161 2°41.898 9.064648 3.56342 33.035098  
2002-03-21 09:47:42 51°11.163 2°41.897 9.065838 3.562919 33.031453  
2002-03-21 09:47:46 51°11.164 2°41.896 9.026477 3.562919 33.032211  
2002-03-21 09:47:52 51°11.166 2°41.895 9.102084 3.563019 33.033244  
2002-03-21 09:47:56 51°11.168 2°41.894 9.025001 3.562418 33.027049  
2002-03-21 09:48:02 51°11.169 2°41.892 9.025001 3.562418 33.027049  
2002-03-21 09:48:06 51°11.171 2°41.892 9.024715 3.562318 33.026016  
2002-03-21 09:48:11 51°11.172 2°41.891 9.02562 3.563019 33.034003  
2002-03-21 09:48:16 51°11.174 2°41.889 9.064934 3.562719 33.032423  
2002-03-21 09:48:21 51°11.176 2°41.889 9.026048 3.562518 33.028081  
2002-03-21 09:48:26 51°11.177 2°41.888 9.026048 3.562518 33.02884  
2002-03-21 09:48:32 51°11.179 2°41.887 9.026048 3.562518 33.02884  
2002-03-21 09:48:37 51°11.181 2°41.886 9.065077 3.562518 33.02884  
2002-03-21 09:48:42 51°11.183 2°41.886 9.065124 3.562418 33.028566  
2002-03-21 09:48:46 51°11.184 2°41.885 9.027477 3.562619 33.029873  
2002-03-21 09:48:52 51°11.186 2°41.885 9.026763 3.562719 33.030905  
2002-03-21 09:48:56 51°11.188 2°41.884 9.027048 3.562619 33.029873  
2002-03-21 09:49:00 51°11.189 2°41.884 9.027048 3.562619 33.029873  
2002-03-21 09:49:06 51°11.192 2°41.883 9.027572 3.56332 33.03786  
2002-03-21 09:49:11 51°11.193 2°41.883 9.067503 3.563019 33.033244  
2002-03-21 09:49:16 51°11.195 2°41.882 9.028238 3.56322 33.036068  
2002-03-21 09:49:22 51°11.198 2°41.882 9.028857 3.562919 33.03297  
2002-03-21 09:49:26 51°11.199 2°41.882 9.06855 3.56312 33.035035  
2002-03-21 09:49:31 51°11.201 2°41.882 9.06855 3.56312 33.035035  
2002-03-21 09:49:36 51°11.203 2°41.882 9.107077 3.56332 33.034065  
2002-03-21 09:49:42 51°11.205 2°41.881 9.032904 3.562518 33.028081  
2002-03-21 09:49:46 51°11.206 2°41.881 9.037045 3.56322 33.033791  
2002-03-21 09:49:51 51°11.208 2°41.881 9.113734 3.563119 33.033518  
2002-03-21 09:49:56 51°11.21 2°41.881 9.033808 3.563721 33.039713  
2002-03-21 09:50:02 51°11.213 2°41.881 9.033808 3.563721 33.039713  
2002-03-21 09:50:06 51°11.214 2°41.881 9.032523 3.56352 33.036889  
2002-03-21 09:50:11 51°11.216 2°41.881 9.03238 3.563721 33.038195  
2002-03-21 09:50:16 51°11.218 2°41.881 9.033047 3.563721 33.037436  
2002-03-21 09:50:22 51°11.22 2°41.881 9.034618 3.564322 33.039837  
2002-03-21 09:50:26 51°11.221 2°41.88 9.114066 3.564121 33.037013  
2002-03-21 09:50:32 51°11.223 2°41.881 9.114066 3.564121 33.037013  
2002-03-21 09:50:36 51°11.225 2°41.88 9.038807 3.564222 33.040322  
2002-03-21 09:50:42 51°11.227 2°41.881 9.040473 3.563921 33.036466  
2002-03-21 09:50:46 51°11.229 2°41.882 9.042234 3.564222 33.039563  
2002-03-21 09:50:52 51°11.231 2°41.882 9.042091 3.564021 33.037499  
2002-03-21 09:50:57 51°11.232 2°41.883 9.042995 3.564322 33.040596  
2002-03-21 09:51:01 51°11.234 2°41.884 9.042995 3.564322 33.040596  
2002-03-21 09:51:06 51°11.236 2°41.885 9.081775 3.564622 33.042175  
2002-03-21 09:51:11 51°11.238 2°41.886 9.043328 3.564522 33.038867  
2002-03-21 09:51:16 51°11.24 2°41.887 9.045089 3.564823 33.040446  
2002-03-21 09:51:21 51°11.242 2°41.887 9.082441 3.565324 33.044849  
2002-03-21 09:51:26 51°11.243 2°41.889 9.040806 3.565123 33.041267  
2002-03-21 09:51:31 51°11.245 2°41.889 9.040806 3.565123 33.041267  
2002-03-21 09:51:36 51°11.247 2°41.89 9.078017 3.565223 33.040782  
2002-03-21 09:51:41 51°11.249 2°41.891 9.039187 3.565524 33.043878  
2002-03-21 09:51:46 51°11.25 2°41.893 9.03795 3.565524 33.043878  
2002-03-21 09:51:51 51°11.252 2°41.894 9.038521 3.565624 33.044152  
2002-03-21 09:51:56 51°11.254 2°41.895 9.038807 3.565123 33.038991  
2002-03-21 09:52:02 51°11.256 2°41.897 9.038807 3.565123 33.038991  
2002-03-21 09:52:06 51°11.257 2°41.898 9.037902 3.565324 33.043331  
2002-03-21 09:52:12 51°11.26 2°41.899 9.035903 3.565624 33.044152  
2002-03-21 09:52:16 51°11.261 2°41.9 9.035712 3.565324 33.044849  
2002-03-21 09:52:20 51°11.262 2°41.901 9.074307 3.565223 33.043058  
2002-03-21 09:52:26 51°11.264 2°41.903 9.035284 3.565023 33.041752  
2002-03-21 09:52:32 51°11.266 2°41.904 9.035284 3.565023 33.041752  
2002-03-21 09:52:36 51°11.267 2°41.905 9.033808 3.565424 33.045122  
2002-03-21 09:52:42 51°11.269 2°41.906 9.035332 3.565123 33.042784  
2002-03-21 09:52:46 51°11.27 2°41.907 9.033285 3.565223 33.043817  
2002-03-21 09:52:52 51°11.271 2°41.908 9.068312 3.565424 33.047399  
2002-03-21 09:52:56 51°11.273 2°41.909 9.025239 3.565123 33.045061  
2002-03-21 09:53:02 51°11.274 2°41.91 9.025239 3.565123 33.045061  
2002-03-21 09:53:06 51°11.276 2°41.911 9.064934 3.565023 33.044028  
2002-03-21 09:53:12 51°11.278 2°41.913 9.023668 3.565424 33.048158  
2002-03-21 09:53:16 51°11.28 2°41.915 9.024334 3.565324 33.048643  
2002-03-21 09:53:22 51°11.283 2°41.917 9.06579 3.564923 33.045273  
2002-03-21 09:53:27 51°11.285 2°41.921 9.025334 3.565023 33.047064  
2002-03-21 09:53:31 51°11.287 2°41.924 9.025334 3.565023 33.047064  
2002-03-21 09:53:36 51°11.289 2°41.929 9.062793 3.564923 33.049068  
2002-03-21 09:53:42 51°11.291 2°41.935 9.062793 3.564422 33.046182  
2002-03-21 09:53:46 51°11.292 2°41.94 9.01943 3.564322 33.045909  
2002-03-21 09:53:51 51°11.294 2°41.946 9.09457 3.564422 33.046941  
2002-03-21 09:53:57 51°11.294 2°41.954 9.017383 3.564522 33.047215  
2002-03-21 09:54:02 51°11.294 2°41.961 9.017383 3.564522 33.047215  
2002-03-21 09:54:06 51°11.293 2°41.967 9.019573 3.564522 33.046456  
2002-03-21 09:54:11 51°11.291 2°41.976 9.02243 3.564422 33.046182  
2002-03-21 09:54:16 51°11.288 2°41.985 9.064077 3.564322 33.045909  
2002-03-21 09:54:22 51°11.283 2°41.995 9.061651 3.564322 33.048186  
2002-03-21 09:54:26 51°11.278 2°42.001 9.026048 3.564322 33.050464  
2002-03-21 09:54:32 51°11.269 2°42.009 9.026048 3.564322 33.050464  
2002-03-21 09:54:37 51°11.26 2°42.013 9.104842 3.563821 33.0453  
2002-03-21 09:54:42 51°11.251 2°42.016 9.103653 3.564222 33.047913  
2002-03-21 09:54:46 51°11.243 2°42.016 9.023192 3.564422 33.04846  
2002-03-21 09:54:52 51°11.231 2°42.013 9.060651 3.564522 33.047974  
2002-03-21 09:54:57 51°11.22 2°42.008 9.062126 3.564422 33.044664  
2002-03-21 09:55:02 51°11.21 2°42 9.062126 3.564422 33.044664  
2002-03-21 09:55:06 51°11.202 2°41.992 9.023192 3.564823 33.048035  
2002-03-21 09:55:11 51°11.193 2°41.98 9.022192 3.564923 33.047549  
2002-03-21 09:55:16 51°11.185 2°41.966 9.060413 3.565123 33.048855  
2002-03-21 09:55:22 51°11.176 2°41.946 9.05832 3.565023 33.049341  
2002-03-21 09:55:26 51°11.172 2°41.931 9.016764 3.565023 33.0501  
2002-03-21 09:55:32 51°11.166 2°41.908 9.016764 3.565023 33.0501  
2002-03-21 09:55:36 51°11.164 2°41.891 9.01505 3.564923 33.049827  
2002-03-21 09:55:42 51°11.16 2°41.866 9.012335 3.564823 33.048794  
2002-03-21 09:55:46 51°11.158 2°41.85 9.010907 3.564422 33.046182  
2002-03-21 09:55:52 51°11.151 2°41.826 9.011431 3.565123 33.05341  
2002-03-21 09:55:56 51°11.146 2°41.812 9.019383 3.564622 33.048247  
2002-03-21 09:56:02 51°11.136 2°41.791 9.019383 3.564622 33.048247  
2002-03-21 09:56:06 51°11.128 2°41.779 9.025953 3.564121 33.046121  
2002-03-21 09:56:12 51°11.116 2°41.76 9.028476 3.564222 33.05019  
2002-03-21 09:56:16 51°11.108 2°41.748 9.032142 3.564122 33.052195  
2002-03-21 09:56:20 51°11.099 2°41.736 9.033761 3.563621 33.050069  
2002-03-21 09:56:26 51°11.085 2°41.72 9.034856 3.563621 33.051588  
2002-03-21 09:56:31 51°11.074 2°41.706 9.034856 3.563621 33.051588  
2002-03-21 09:56:36 51°11.061 2°41.693 9.030809 3.563621 33.04855  
2002-03-21 09:56:41 51°11.049 2°41.68 9.026953 3.56352 33.04372  
2002-03-21 09:56:46 51°11.036 2°41.668 9.026191 3.564021 33.046606  
2002-03-21 09:56:51 51°11.024 2°41.656 9.06284 3.563921 33.041778  
2002-03-21 09:56:56 51°11.01 2°41.644 9.023858 3.564522 33.044938  
2002-03-21 09:57:01 51°10.997 2°41.633 9.023858 3.564522 33.044938  
2002-03-21 09:57:06 51°10.983 2°41.623 9.028714 3.564522 33.04342  
2002-03-21 09:57:11 51°10.97 2°41.612 9.069073 3.564322 33.040596  
2002-03-21 09:57:16 51°10.955 2°41.601 9.033189 3.564422 33.041628  
2002-03-21 09:57:22 51°10.936 2°41.588 9.034998 3.564422 33.043905  
2002-03-21 09:57:26 51°10.923 2°41.579 9.075686 3.564121 33.042325  
2002-03-21 09:57:31 51°10.907 2°41.567 9.075686 3.564121 33.042325  
2002-03-21 09:57:36 51°10.891 2°41.556 9.075591 3.563821 33.039228  
2002-03-21 09:57:42 51°10.871 2°41.541 9.078017 3.564021 33.039775  
2002-03-21 09:57:46 51°10.857 2°41.532 9.043709 3.564121 33.040049  
2002-03-21 09:57:51 51°10.839 2°41.52 9.085961 3.564222 33.038046  
2002-03-21 09:57:56 51°10.822 2°41.51 9.04785 3.564422 33.037076  
2002-03-21 09:58:02 51°10.801 2°41.497 9.04785 3.564422 33.037076  
2002-03-21 09:58:06 51°10.787 2°41.487 9.055036 3.564422 33.035558  
2002-03-21 09:58:11 51°10.77 2°41.475 9.063459 3.564522 33.035832  
2002-03-21 09:58:16 51°10.753 2°41.463 9.069644 3.564522 33.033557  
2002-03-21 09:58:22 51°10.732 2°41.448 9.116444 3.564622 33.033072  
2002-03-21 09:58:26 51°10.717 2°41.44 9.0852 3.564923 33.033893  
2002-03-21 09:58:32 51°10.696 2°41.427 9.0852 3.564923 33.033893  
2002-03-21 09:58:37 51°10.679 2°41.416 9.161309 3.564823 33.030586  
2002-03-21 09:58:41 51°10.665 2°41.407 9.223992 3.564923 33.027827  
2002-03-21 09:58:46 51°10.647 2°41.397 9.29496 3.565424 33.026922  
2002-03-21 09:58:51 51°10.629 2°41.387 9.31032 3.565323 33.022102  
2002-03-21 09:58:56 51°10.611 2°41.378 9.380058 3.565624 33.018378  
2002-03-21 09:59:02 51°10.589 2°41.368 9.380058 3.565624 33.018378  
2002-03-21 09:59:06 51°10.575 2°41.363 9.383041 3.56352 32.984615  
2002-03-21 09:59:12 51°10.554 2°41.355 9.348041 3.549692 32.810804  
2002-03-21 09:59:16 51°10.539 2°41.35 9.353394 3.530355 32.567506  
2002-03-21 09:59:22 51°10.516 2°41.342 9.383325 3.512321 32.345029  
2002-03-21 09:59:26 51°10.501 2°41.337 9.399989 3.499296 32.172911  
2002-03-21 09:59:32 51°10.48 2°41.329 9.399989 3.499296 32.172911  
2002-03-21 09:59:37 51°10.461 2°41.323 9.420956 3.486772 32.018798  
2002-03-21 09:59:42 51°10.443 2°41.317 9.436286 3.481162 31.939774  
2002-03-21 09:59:47 51°10.425 2°41.311 9.443429 3.478256 31.898564  
2002-03-21 09:59:51 51°10.41 2°41.306 9.428385 3.47505 31.855054  
2002-03-21 09:59:56 51°10.392 2°41.3 9.44868 3.464231 31.73054  
2002-03-21 10:00:00 51°10.377 2°41.295 9.44868 3.464231 31.73054  
2002-03-21 10:00:06 51°10.356 2°41.289 9.453315 3.454012 31.612302  
2002-03-21 10:00:11 51°10.337 2°41.283 9.414283 3.440087 31.456608  
2002-03-21 10:00:16 51°10.319 2°41.277 9.408793 3.424159 31.278714  
2002-03-21 10:00:21 51°10.301 2°41.269 9.401457 3.40763 31.09998  
2002-03-21 10:00:26 51°10.283 2°41.261 9.388675 3.404124 31.061673  
2002-03-21 10:00:32 51°10.262 2°41.249 9.388675 3.404124 31.061673  
2002-03-21 10:00:37 51°10.244 2°41.239 9.426539 3.405927 31.084151  
2002-03-21 10:00:42 51°10.227 2°41.23 9.382757 3.403223 31.060297  
2002-03-21 10:00:46 51°10.213 2°41.223 9.384461 3.398114 31.010698  
2002-03-21 10:00:52 51°10.191 2°41.213 9.477858 3.394107 30.971553  
2002-03-21 10:00:56 51°10.176 2°41.208 9.425404 3.398414 31.019369  
2002-03-21 10:01:01 51°10.158 2°41.2 9.425404 3.398414 31.019369  
2002-03-21 10:01:06 51°10.141 2°41.192 9.432927 3.405627 31.097332  
2002-03-21 10:01:11 51°10.123 2°41.183 9.359646 3.409534 31.143263  
2002-03-21 10:01:16 51°10.106 2°41.174 9.328188 3.412739 31.180698  
2002-03-21 10:01:20 51°10.092 2°41.166 9.31743 3.409634 31.149935  
2002-03-21 10:01:26 51°10.071 2°41.155 9.281921 3.395409 30.9995  
2002-03-21 10:01:31 51°10.053 2°41.146 9.281921 3.395409 30.9995  
2002-03-21 10:01:36 51°10.035 2°41.134 9.263234 3.378681 30.82319  
2002-03-21 10:01:40 51°10.022 2°41.124 9.285288 3.385292 30.893579  
2002-03-21 10:01:46 51°10.004 2°41.109 9.249761 3.406428 31.119573  
2002-03-21 10:01:51 51°9.991 2°41.095 9.268072 3.427666 31.35338  
2002-03-21 10:01:56 51°9.979 2°41.081 9.276657 3.447601 31.572289  
2002-03-21 10:02:02 51°9.966 2°41.062 9.276657 3.447601 31.572289  
2002-03-21 10:02:06 51°9.96 2°41.05 9.323923 3.467637 31.794807  
2002-03-21 10:02:11 51°9.952 2°41.036 9.388628 3.485069 31.989774  
2002-03-21 10:02:16 51°9.946 2°41.022 9.436191 3.498093 32.13792  
2002-03-21 10:02:22 51°9.939 2°41.006 9.45393 3.5016 32.181764  
2002-03-21 10:02:26 51°9.936 2°40.995 9.510189 3.496591 32.132105  
2002-03-21 10:02:31 51°9.931 2°40.984 9.510189 3.496591 32.132105  
2002-03-21 10:02:36 51°9.929 2°40.973 9.461071 3.488275 32.042881  
2002-03-21 10:02:42 51°9.927 2°40.963 9.503431 3.454013 31.673472  
2002-03-21 10:02:46 51°9.925 2°40.958 9.589247 3.395811 31.051488  
2002-03-21 10:02:50 51°9.925 2°40.953 9.637465 3.349333 30.54592  
2002-03-21 10:02:56 51°9.924 2°40.949 9.608784 3.318983 30.21397  
2002-03-21 10:03:01 51°9.924 2°40.947 9.608784 3.318983 30.21397  
2002-03-21 10:03:07 51°9.924 2°40.945 9.631475 3.302357 30.027273  
2002-03-21 10:03:12 51°9.924 2°40.943 9.545857 3.293543 29.926989  
2002-03-21 10:03:17 51°9.923 2°40.942 9.539292 3.264699 29.614082  
2002-03-21 10:03:22 51°9.924 2°40.94 9.468212 3.22554 29.19276  
2002-03-21 10:03:26 51°9.923 2°40.939 9.428148 3.184682 28.750145  
2002-03-21 10:03:31 51°9.924 2°40.938 9.428148 3.184682 28.750145  
2002-03-21 10:03:36 51°9.923 2°40.937 9.403208 3.166758 28.550624  
2002-03-21 10:03:42 51°9.924 2°40.935 9.370824 3.170162 28.578125  
2002-03-21 10:03:47 51°9.924 2°40.934 9.347141 3.198201 28.86628  
2002-03-21 10:03:53 51°9.924 2°40.932 9.354247 3.238359 29.288747  
2002-03-21 10:03:57 51°9.924 2°40.93 9.411207 3.277918 29.713275  
2002-03-21 10:04:02 51°9.925 2°40.928 9.411207 3.277918 29.713275  
2002-03-21 10:04:07 51°9.926 2°40.925 9.419631 3.315577 30.11407  
2002-03-21 10:04:12 51°9.927 2°40.923 9.371108 3.345225 30.445664  
2002-03-21 10:04:16 51°9.928 2°40.92 9.39232 3.370467 30.719908  
2002-03-21 10:04:22 51°9.93 2°40.916 9.315487 3.394007 30.97827  
2002-03-21 10:04:26 51°9.931 2°40.913 9.328757 3.398214 31.030014  
2002-03-21 10:04:32 51°9.934 2°40.909 9.328757 3.398214 31.030014  
2002-03-21 10:04:36 51°9.936 2°40.907 9.269969 3.390501 30.95051  
2002-03-21 10:04:42 51°9.939 2°40.902 9.261858 3.385092 30.893655  
2002-03-21 10:04:47 51°9.942 2°40.899 9.262997 3.388197 30.926486  
2002-03-21 10:04:52 51°9.946 2°40.895 9.269353 3.402221 31.079768  
2002-03-21 10:04:56 51°9.949 2°40.892 9.277368 3.426263 31.338436  
2002-03-21 10:05:01 51°9.953 2°40.888 9.277368 3.426263 31.338436  
2002-03-21 10:05:06 51°9.957 2°40.885 9.28415 3.449705 31.600856  
2002-03-21 10:05:11 51°9.961 2°40.881 9.297758 3.471244 31.83659  
2002-03-21 10:05:16 51°9.966 2°40.878 9.312785 3.484568 31.98831  
2002-03-21 10:05:21 51°9.971 2°40.875 9.325345 3.488576 32.036456  
2002-03-21 10:05:26 51°9.976 2°40.872 9.346383 3.487874 32.032224  
2002-03-21 10:05:31 51°9.982 2°40.87 9.346383 3.487874 32.032224  
2002-03-21 10:05:35 51°9.986 2°40.868 9.345909 3.482765 31.977941  
2002-03-21 10:05:41 51°9.993 2°40.865 9.34283 3.477255 31.91814  
2002-03-21 10:05:46 51°9.998 2°40.863 9.33956 3.470342 31.841904  
2002-03-21 10:05:52 51°10.005 2°40.861 9.34463 3.461526 31.74345  
2002-03-21 10:05:56 51°10.009 2°40.86 9.346857 3.455415 31.672604  
2002-03-21 10:06:00 51°10.014 2°40.859 9.346857 3.455415 31.672604  
2002-03-21 10:06:06 51°10.02 2°40.859 9.341929 3.438986 31.493341  
2002-03-21 10:06:11 51°10.026 2°40.858 9.337855 3.432975 31.424407  
2002-03-21 10:06:16 51°10.031 2°40.858 9.336575 3.434377 31.435793  
2002-03-21 10:06:20 51°10.036 2°40.859 9.412485 3.435179 31.443933  
2002-03-21 10:06:26 51°10.042 2°40.859 9.333732 3.430871 31.397331  
2002-03-21 10:06:31 51°10.047 2°40.86 9.333732 3.430871 31.397331  
2002-03-21 10:06:36 51°10.053 2°40.861 9.335817 3.428968 31.376579  
2002-03-21 10:06:41 51°10.058 2°40.863 9.339229 3.42997 31.388176  
2002-03-21 10:06:46 51°10.064 2°40.865 9.347851 3.432975 31.420835  
2002-03-21 10:06:51 51°10.068 2°40.867 9.349462 3.435079 31.442916  
2002-03-21 10:06:56 51°10.074 2°40.869 9.351878 3.437283 31.467447  
2002-03-21 10:07:02 51°10.08 2°40.873 9.351878 3.437283 31.467447  
2002-03-21 10:07:06 51°10.083 2°40.875 9.358368 3.439186 31.487499  
2002-03-21 10:07:11 51°10.088 2°40.879 9.349036 3.438485 31.480375  
2002-03-21 10:07:17 51°10.094 2°40.883 9.343256 3.435479 31.4477  
2002-03-21 10:07:22 51°10.098 2°40.887 9.342403 3.431572 31.403737  
2002-03-21 10:07:26 51°10.102 2°40.891 9.410876 3.429769 31.381862  
2002-03-21 10:07:31 51°10.106 2°40.895 9.410876 3.429769 31.381862  
2002-03-21 10:07:36 51°10.11 2°40.9 9.322928 3.427065 31.351555  
2002-03-21 10:07:42 51°10.115 2°40.906 9.320558 3.422456 31.302655  
2002-03-21 10:07:46 51°10.118 2°40.91 9.307808 3.422456 31.302655  
2002-03-21 10:07:52 51°10.123 2°40.917 9.29387 3.423659 31.317699  
2002-03-21 10:07:56 51°10.125 2°40.922 9.308472 3.423959 31.321461  
2002-03-21 10:08:02 51°10.129 2°40.929 9.308472 3.423959 31.321461  
2002-03-21 10:08:06 51°10.132 2°40.934 9.304537 3.428667 31.373528  
2002-03-21 10:08:11 51°10.135 2°40.94 9.307334 3.436481 31.460022  
2002-03-21 10:08:16 51°10.137 2°40.946 9.343967 3.44149 31.515208  
2002-03-21 10:08:22 51°10.141 2°40.954 9.307097 3.450206 31.61242  
2002-03-21 10:08:26 51°10.143 2°40.959 9.317193 3.457619 31.693584  
2002-03-21 10:08:30 51°10.145 2°40.964 9.317193 3.457619 31.693584  
2002-03-21 10:08:36 51°10.148 2°40.972 9.328946 3.456617 31.685555  
2002-03-21 10:08:40 51°10.149 2°40.978 9.336954 3.455916 31.679141  
2002-03-21 10:08:46 51°10.152 2°40.986 9.345198 3.456317 31.683218  
2002-03-21 10:08:51 51°10.153 2°40.994 9.34662 3.457519 31.69545  
2002-03-21 10:08:55 51°10.155 2°41 9.350457 3.457218 31.691671  
2002-03-21 10:09:01 51°10.156 2°41.008 9.350457 3.457218 31.691671  
2002-03-21 10:09:06 51°10.158 2°41.016 9.349841 3.451809 31.632317  
2002-03-21 10:09:11 51°10.159 2°41.023 9.348846 3.444696 31.554963  
2002-03-21 10:09:16 51°10.16 2°41.031 9.339655 3.439386 31.493831  
2002-03-21 10:09:21 51°10.161 2°41.039 9.333022 3.43608 31.453806  
2002-03-21 10:09:26 51°10.162 2°41.046 9.320606 3.43568 31.445446  
2002-03-21 10:09:32 51°10.162 2°41.056 9.320606 3.43568 31.445446  
2002-03-21 10:09:37 51°10.163 2°41.064 9.314018 3.434678 31.430985  
2002-03-21 10:09:42 51°10.162 2°41.071 9.318899 3.435079 31.433625  
2002-03-21 10:09:46 51°10.162 2°41.078 9.32762 3.437282 31.456004  
2002-03-21 10:09:51 51°10.162 2°41.085 9.343398 3.441189 31.497113  
2002-03-21 10:09:55 51°10.161 2°41.091 9.360073 3.444395 31.534693  
2002-03-21 10:10:01 51°10.161 2°41.101 9.360073 3.444395 31.534693  
2002-03-21 10:10:07 51°10.159 2°41.11 9.384461 3.447901 31.57678  
2002-03-21 10:10:12 51°10.158 2°41.117 9.396676 3.451408 31.618171  
2002-03-21 10:10:16 51°10.157 2°41.123 9.403303 3.45271 31.632851  
2002-03-21 10:10:21 51°10.155 2°41.13 9.409077 3.451107 31.612958  
2002-03-21 10:10:26 51°10.154 2°41.136 9.408367 3.445597 31.550493  
2002-03-21 10:10:31 51°10.152 2°41.142 9.408367 3.445597 31.550493  
2002-03-21 10:10:36 51°10.15 2°41.148 9.399279 3.433776 31.418975  
2002-03-21 10:10:42 51°10.148 2°41.155 9.396013 3.418449 31.249928  
2002-03-21 10:10:47 51°10.146 2°41.16 9.398522 3.402522 31.077873  
2002-03-21 10:10:52 51°10.144 2°41.165 9.404297 3.393506 30.977418  
2002-03-21 10:10:56 51°10.143 2°41.169 9.450241 3.388197 30.917364  
2002-03-21 10:11:01 51°10.141 2°41.174 9.450241 3.388197 30.917364  
2002-03-21 10:11:06 51°10.139 2°41.179 9.446409 3.387696 30.907387  
2002-03-21 10:11:11 51°10.137 2°41.183 9.478614 3.394808 30.980758  
2002-03-21 10:11:16 51°10.135 2°41.187 9.502533 3.400318 31.037228  
2002-03-21 10:11:21 51°10.133 2°41.191 9.511134 3.402822 31.061173  
2002-03-21 10:11:27 51°10.13 2°41.196 9.52682 3.400618 31.038158  
2002-03-21 10:11:32 51°10.128 2°41.199 9.52682 3.400618 31.038158  
2002-03-21 10:11:36 51°10.126 2°41.202 9.555302 3.392905 30.954474  
2002-03-21 10:11:40 51°10.124 2°41.205 9.518458 3.369365 30.703902  
2002-03-21 10:11:46 51°10.121 2°41.209 9.553035 3.33571 30.344204  
2002-03-21 10:11:51 51°10.119 2°41.212 9.586698 3.305762 30.025513  
2002-03-21 10:11:55 51°10.117 2°41.214 9.66505 3.286331 29.814585  
2002-03-21 10:12:02 51°10.114 2°41.218 9.66505 3.286331 29.814585  
2002-03-21 10:12:06 51°10.112 2°41.22 9.588491 3.271709 29.654976  
2002-03-21 10:12:11 51°10.109 2°41.223 9.645766 3.271709 29.650285  
2002-03-21 10:12:16 51°10.107 2°41.225 9.617371 3.269605 29.625833  
2002-03-21 10:12:22 51°10.104 2°41.228 9.623409 3.245269 29.371192  
2002-03-21 10:12:26 51°10.102 2°41.23 9.606896 3.214324 29.042386  
2002-03-21 10:12:32 51°10.099 2°41.232 9.606896 3.214324 29.042386  
2002-03-21 10:12:36 51°10.096 2°41.234 9.60213 3.201606 28.902234  
2002-03-21 10:12:42 51°10.093 2°41.236 9.595335 3.193995 28.82104  
2002-03-21 10:12:46 51°10.091 2°41.238 9.626711 3.181077 28.682436  
2002-03-21 10:12:51 51°10.089 2°41.24 9.598969 3.16886 28.552919  
2002-03-21 10:12:56 51°10.086 2°41.241 9.611756 3.163553 28.493624  
2002-03-21 10:13:02 51°10.083 2°41.243 9.611756 3.163553 28.493624  
2002-03-21 10:13:06 51°10.081 2°41.244 9.647699 3.169461 28.552472  
2002-03-21 10:13:11 51°10.078 2°41.246 9.620296 3.17617 28.620608  
2002-03-21 10:13:16 51°10.075 2°41.247 9.621145 3.183881 28.701988  
2002-03-21 10:13:21 51°10.073 2°41.248 9.615814 3.19039 28.770139  
2002-03-21 10:13:26 51°10.07 2°41.25 9.61888 3.184982 28.714913  
2002-03-21 10:13:32 51°10.067 2°41.251 9.61888 3.184982 28.714913  
2002-03-21 10:13:36 51°10.065 2°41.252 9.607887 3.177071 28.63217  
2002-03-21 10:13:42 51°10.061 2°41.253 9.60416 3.173366 28.59138  
2002-03-21 10:13:46 51°10.059 2°41.253 9.638786 3.166757 28.522327  
2002-03-21 10:13:52 51°10.056 2°41.254 9.620862 3.164354 28.494542  
2002-03-21 10:13:57 51°10.053 2°41.255 9.666747 3.165756 28.508502  
2002-03-21 10:14:02 51°10.05 2°41.255 9.666747 3.165756 28.508502  
2002-03-21 10:14:06 51°10.048 2°41.256 9.627136 3.167058 28.520822  
2002-03-21 10:14:12 51°10.045 2°41.256 9.636475 3.174868 28.600548  
2002-03-21 10:14:17 51°10.042 2°41.257 9.631428 3.181878 28.674267  
2002-03-21 10:14:22 51°10.039 2°41.256 9.668633 3.185683 28.712198  
2002-03-21 10:14:26 51°10.037 2°41.257 9.630862 3.174768 28.600195  
2002-03-21 10:14:32 51°10.034 2°41.256 9.630862 3.174768 28.600195  
2002-03-21 10:14:36 51°10.032 2°41.256 9.633692 3.165656 28.504295  
2002-03-21 10:14:42 51°10.028 2°41.255 9.633975 3.160549 28.44961  
2002-03-21 10:14:46 51°10.026 2°41.255 9.643408 3.152838 28.369689  
2002-03-21 10:14:52 51°10.023 2°41.254 9.63756 3.152438 28.363789  
2002-03-21 10:14:56 51°10.021 2°41.253 9.625202 3.155142 28.390046  
2002-03-21 10:15:01 51°10.018 2°41.252 9.625202 3.155142 28.390046  
2002-03-21 10:15:06 51°10.016 2°41.251 9.628268 3.156143 28.400008  
2002-03-21 10:15:11 51°10.013 2°41.25 9.675704 3.15434 28.382077  
2002-03-21 10:15:16 51°10.011 2°41.248 9.665899 3.152338 28.360878  
2002-03-21 10:15:22 51°10.008 2°41.246 9.680228 3.143827 28.273054  
2002-03-21 10:15:26 51°10.006 2°41.245 9.672168 3.147431 28.308894  
2002-03-21 10:15:31 51°10.003 2°41.243 9.672168 3.147431 28.308894  
2002-03-21 10:15:36 51°10.001 2°41.242 9.692812 3.157144 28.407413  
2002-03-21 10:15:42 51°9.998 2°41.239 9.690173 3.159147 28.429257  
2002-03-21 10:15:46 51°9.996 2°41.238 9.703131 3.151937 28.354342  
2002-03-21 10:15:51 51°9.993 2°41.235 9.745898 3.128507 28.112576  
2002-03-21 10:15:56 51°9.991 2°41.233 9.707136 3.110684 27.926842  
2002-03-21 10:16:02 51°9.988 2°41.229 9.707136 3.110684 27.926842  
2002-03-21 10:16:06 51°9.986 2°41.227 9.714202 3.104576 27.859994  
2002-03-21 10:16:11 51°9.984 2°41.223 9.740907 3.093763 27.74594  
2002-03-21 10:16:16 51°9.982 2°41.22 9.74764 3.088957 27.694593  
2002-03-21 10:16:21 51°9.98 2°41.217 9.772637 3.079245 27.591604  
2002-03-21 10:16:26 51°9.977 2°41.214 9.835486 3.072237 27.517304  
2002-03-21 10:16:31 51°9.975 2°41.21 9.835486 3.072237 27.517304  
2002-03-21 10:16:36 51°9.973 2°41.207 9.854338 3.06683 27.45951  
2002-03-21 10:16:40 51°9.972 2°41.204 9.851847 3.059121 27.379602  
2002-03-21 10:16:46 51°9.97 2°41.199 9.866653 3.038497 27.168539  
2002-03-21 10:16:51 51°9.968 2°41.195 9.869144 3.020778 26.984602  
2002-03-21 10:16:56 51°9.966 2°41.191 9.871399 2.996251 26.729712  
2002-03-21 10:17:02 51°9.964 2°41.186 9.871399 2.996251 26.729712  
2002-03-21 10:17:06 51°9.963 2°41.183 9.930397 2.969223 26.449583  
2002-03-21 10:17:11 51°9.961 2°41.178 9.909688 2.947602 26.227828  
2002-03-21 10:17:17 51°9.959 2°41.173 9.918564 2.914171 25.879164  
2002-03-21 10:17:22 51°9.957 2°41.169 9.968323 2.884745 25.578706  
2002-03-21 10:17:26 51°9.956 2°41.165 9.927533 2.872835 25.452121  
2002-03-21 10:17:31 51°9.954 2°41.161 9.927533 2.872835 25.452121  
2002-03-21 10:17:36 51°9.952 2°41.157 9.918095 2.865729 25.377097  
2002-03-21 10:17:41 51°9.95 2°41.152 9.885449 2.850617 25.21957  
2002-03-21 10:17:47 51°9.948 2°41.147 9.823401 2.8277 24.98575  
2002-03-21 10:17:52 51°9.946 2°41.142 9.763741 2.810988 24.815441  
2002-03-21 10:17:56 51°9.945 2°41.139 9.703932 2.79948 24.696453  
2002-03-21 10:18:02 51°9.942 2°41.133 9.703932 2.79948 24.696453  
2002-03-21 10:18:06 51°9.94 2°41.13 9.680464 2.797878 24.676503  
2002-03-21 10:18:12 51°9.938 2°41.125 9.657837 2.805384 24.749386  
2002-03-21 10:18:16 51°9.936 2°41.122 9.681265 2.834404 25.043183  
2002-03-21 10:18:22 51°9.934 2°41.117 9.653405 2.895053 25.657095  
2002-03-21 10:18:27 51°9.932 2°41.113 9.650057 2.952106 26.253225  
2002-03-21 10:18:32 51°9.929 2°41.109 9.650057 2.952106 26.253225  
2002-03-21 10:18:36 51°9.927 2°41.105 9.645483 3.014671 26.895443  
2002-03-21 10:18:42 51°9.925 2°41.1 9.651377 3.062325 27.389751  
2002-03-21 10:18:46 51°9.923 2°41.097 9.667831 3.099369 27.780277  
2002-03-21 10:18:52 51°9.92 2°41.092 9.637937 3.125703 28.058857  
2002-03-21 10:18:57 51°9.918 2°41.088 9.616805 3.130409 28.114397  
2002-03-21 10:19:02 51°9.915 2°41.084 9.616805 3.130409 28.114397  
2002-03-21 10:19:06 51°9.913 2°41.081 9.599629 3.132512 28.140965  
2002-03-21 10:19:12 51°9.91 2°41.076 9.597175 3.137218 28.190869  
2002-03-21 10:19:16 51°9.908 2°41.073 9.592456 3.134414 28.162389  
2002-03-21 10:19:20 51°9.906 2°41.07 9.590049 3.126904 28.085926  
2002-03-21 10:19:26 51°9.903 2°41.065 9.667454 3.137518 28.196389  
2002-03-21 10:19:32 51°9.9 2°41.061 9.667454 3.137518 28.196389  
2002-03-21 10:19:36 51°9.899 2°41.058 9.649727 3.162852 28.45972  
2002-03-21 10:19:41 51°9.896 2°41.054 9.661656 3.181878 28.66071  
2002-03-21 10:19:47 51°9.893 2°41.049 9.718065 3.188887 28.738318  
2002-03-21 10:19:52 51°9.89 2°41.045 9.676552 3.196698 28.820736  
2002-03-21 10:19:56 51°9.888 2°41.042 9.723199 3.199302 28.851253  
2002-03-21 10:20:02 51°9.885 2°41.037 9.723199 3.199302 28.851253  
2002-03-21 10:20:06 51°9.883 2°41.034 9.747075 3.173066 28.580018  
2002-03-21 10:20:11 51°9.881 2°41.03 9.748535 3.148433 28.324588  
2002-03-21 10:20:16 51°9.878 2°41.026 9.81183 3.129708 28.125143  
2002-03-21 10:20:22 51°9.875 2°41.022 9.796918 3.114789 27.965685  
2002-03-21 10:20:26 51°9.873 2°41.018 9.873185 3.102974 27.841607  
2002-03-21 10:20:31 51°9.871 2°41.014 9.873185 3.102974 27.841607  
2002-03-21 10:20:36 51°9.869 2°41.01 9.858005 3.09156 27.721624  
2002-03-21 10:20:42 51°9.866 2°41.004 9.914197 3.070735 27.50183  
2002-03-21 10:20:47 51°9.864 2°41 9.889537 3.044204 27.228545  
2002-03-21 10:20:51 51°9.862 2°40.996 9.895926 3.013169 26.901751  
2002-03-21 10:20:56 51°9.861 2°40.992 9.891745 2.989244 26.649989  
2002-03-21 10:21:02 51°9.858 2°40.986 9.891745 2.989244 26.649989  
2002-03-21 10:21:06 51°9.858 2°40.982 9.892496 2.961716 26.358111  
2002-03-21 10:21:11 51°9.856 2°40.976 9.897711 2.93529 26.079022  
2002-03-21 10:21:16 51°9.855 2°40.971 9.902032 2.916673 25.881086  
2002-03-21 10:21:22 51°9.854 2°40.964 9.895503 2.901859 25.724158  
2002-03-21 10:21:27 51°9.853 2°40.959 9.887563 2.888948 25.588899  
2002-03-21 10:21:32 51°9.851 2°40.953 9.887563 2.888948 25.588899  
2002-03-21 10:21:36 51°9.851 2°40.949 9.923495 2.885045 25.546809  
2002-03-21 10:21:42 51°9.85 2°40.942 9.873514 2.884944 25.542981  
2002-03-21 10:21:47 51°9.849 2°40.936 9.903348 2.883643 25.528008  
2002-03-21 10:21:52 51°9.849 2°40.93 9.847287 2.882042 25.51011  
2002-03-21 10:21:56 51°9.849 2°40.926 9.829326 2.885145 25.539805  
2002-03-21 10:22:02 51°9.848 2°40.919 9.829326 2.885145 25.539805  
2002-03-21 10:22:06 51°9.848 2°40.914 9.767318 2.89155 25.604586  
2002-03-21 10:22:11 51°9.847 2°40.908 9.700963 2.896354 25.653764  
2002-03-21 10:22:16 51°9.847 2°40.902 9.627938 2.905262 25.744188  
2002-03-21 10:22:22 51°9.846 2°40.895 9.593919 2.915571 25.851254  
2002-03-21 10:22:25 51°9.847 2°40.892 9.496058 2.930385 26.004811  
2002-03-21 10:22:31 51°9.846 2°40.884 9.496058 2.930385 26.004811  
2002-03-21 10:22:36 51°9.846 2°40.878 9.439976 2.957711 26.285278  
2002-03-21 10:22:40 51°9.846 2°40.873 9.421382 3.003358 26.755315  
2002-03-21 10:22:46 51°9.846 2°40.866 9.410402 3.05892 27.334063  
2002-03-21 10:22:51 51°9.845 2°40.86 9.401457 3.136717 28.149185  
2002-03-21 10:22:56 51°9.845 2°40.854 9.396108 3.200704 28.83406  
2002-03-21 10:23:00 51°9.845 2°40.85 9.396108 3.200704 28.83406  
2002-03-21 10:23:06 51°9.844 2°40.842 9.396439 3.264497 29.521899  
2002-03-21 10:23:12 51°9.844 2°40.835 9.399705 3.323289 30.154168  
2002-03-21 10:23:16 51°9.843 2°40.83 9.400699 3.359749 30.558292  
2002-03-21 10:23:22 51°9.843 2°40.823 9.393599 3.382086 30.80662  
2002-03-21 10:23:27 51°9.842 2°40.817 9.392888 3.399015 30.991703  
2002-03-21 10:23:32 51°9.842 2°40.811 9.392888 3.399015 30.991703  
2002-03-21 10:23:36 51°9.841 2°40.806 9.429567 3.412438 31.138067  
2002-03-21 10:23:42 51°9.841 2°40.799 9.498137 3.420252 31.222831  
2002-03-21 10:23:46 51°9.84 2°40.794 9.430372 3.423558 31.260565  
2002-03-21 10:23:51 51°9.84 2°40.788 9.41097 3.425561 31.280861  
2002-03-21 10:23:56 51°9.839 2°40.782 9.386402 3.428967 31.319632  
2002-03-21 10:24:02 51°9.838 2°40.775 9.386402 3.428967 31.319632  
2002-03-21 10:24:06 51°9.838 2°40.77 9.375465 3.432674 31.358619  
2002-03-21 10:24:11 51°9.837 2°40.764 9.40335 3.433776 31.371212  
2002-03-21 10:24:16 51°9.836 2°40.758 9.353441 3.418048 31.205467  
2002-03-21 10:24:22 51°9.836 2°40.75 9.342498 3.405426 31.070625  
2002-03-21 10:24:27 51°9.835 2°40.744 9.332643 3.410435 31.122022  
2002-03-21 10:24:32 51°9.834 2°40.738 9.332643 3.410435 31.122022  
2002-03-21 10:24:36 51°9.834 2°40.733 9.325771 3.422155 31.249193  
2002-03-21 10:24:42 51°9.833 2°40.725 9.364714 3.434878 31.389504  
2002-03-21 10:24:46 51°9.832 2°40.721 9.406853 3.446398 31.516363  
2002-03-21 10:24:51 51°9.831 2°40.715 9.362441 3.454914 31.610689  
2002-03-21 10:24:56 51°9.831 2°40.709 9.31307 3.46423 31.716122  
2002-03-21 10:25:02 51°9.83 2°40.701 9.31307 3.46423 31.716122  
2002-03-21 10:25:06 51°9.829 2°40.696 9.30667 3.472245 31.80481  
2002-03-21 10:25:12 51°9.828 2°40.689 9.341787 3.477855 31.87128  
2002-03-21 10:25:16 51°9.828 2°40.683 9.303731 3.48046 31.902134  
2002-03-21 10:25:22 51°9.828 2°40.675 9.313733 3.48056 31.904605  
2002-03-21 10:25:26 51°9.827 2°40.671 9.361162 3.482865 31.931687  
2002-03-21 10:25:31 51°9.826 2°40.664 9.361162 3.482865 31.931687  
2002-03-21 10:25:36 51°9.825 2°40.658 9.323971 3.487774 31.984572  
2002-03-21 10:25:42 51°9.824 2°40.65 9.322264 3.492482 32.038353  
2002-03-21 10:25:46 51°9.823 2°40.645 9.322738 3.495388 32.073788  
2002-03-21 10:25:51 51°9.822 2°40.639 9.321459 3.496891 32.090562  
2002-03-21 10:25:56 51°9.821 2°40.633 9.358036 3.494186 32.060808  
2002-03-21 10:26:02 51°9.82 2°40.626 9.358036 3.494186 32.060808  
2002-03-21 10:26:07 51°9.818 2°40.62 9.312359 3.488876 32.003073  
2002-03-21 10:26:11 51°9.818 2°40.615 9.305011 3.48577 31.968533  
2002-03-21 10:26:17 51°9.816 2°40.607 9.341835 3.485469 31.964018  
2002-03-21 10:26:22 51°9.815 2°40.601 9.294534 3.48557 31.965039  
2002-03-21 10:26:27 51°9.813 2°40.595 9.285857 3.487072 31.979613  
2002-03-21 10:26:32 51°9.812 2°40.589 9.285857 3.487072 31.979613  
2002-03-21 10:26:36 51°9.811 2°40.585 9.275471 3.488174 31.991563  
2002-03-21 10:26:40 51°9.81 2°40.58 9.263661 3.490679 32.019984  
2002-03-21 10:26:46 51°9.808 2°40.573 9.254315 3.494586 32.065621  
2002-03-21 10:26:51 51°9.806 2°40.567 9.286852 3.497892 32.101502  
2002-03-21 10:26:56 51°9.805 2°40.561 9.282917 3.5019 32.148201  
2002-03-21 10:27:02 51°9.803 2°40.554 9.282917 3.5019 32.148201  
2002-03-21 10:27:06 51°9.802 2°40.549 9.241647 3.506308 32.197545  
2002-03-21 10:27:12 51°9.8 2°40.542 9.242786 3.511618 32.261254  
2002-03-21 10:27:17 51°9.799 2°40.536 9.240081 3.518231 32.336102  
2002-03-21 10:27:22 51°9.797 2°40.53 9.239084 3.52304 32.394799  
2002-03-21 10:27:26 51°9.796 2°40.525 9.277321 3.527448 32.447228  
2002-03-21 10:27:32 51°9.794 2°40.518 9.277321 3.527448 32.447228  
2002-03-21 10:27:36 51°9.793 2°40.513 9.24084 3.530053 32.479772  
2002-03-21 10:27:42 51°9.791 2°40.506 9.249903 3.531155 32.494002  
2002-03-21 10:27:46 51°9.79 2°40.501 9.2731 3.530855 32.493151  
2002-03-21 10:27:51 51°9.788 2°40.496 9.287611 3.529953 32.486155  
2002-03-21 10:27:56 51°9.787 2°40.49 9.304964 3.529753 32.486329  
2002-03-21 10:28:02 51°9.785 2°40.482 9.304964 3.529753 32.486329  
2002-03-21 10:28:06 51°9.784 2°40.478 9.333211 3.529853 32.488094  
2002-03-21 10:28:11 51°9.783 2°40.472 9.330747 3.527949 32.467149  
2002-03-21 10:28:16 51°9.781 2°40.466 9.317335 3.522038 32.405243  
2002-03-21 10:28:22 51°9.78 2°40.458 9.298042 3.508212 32.253676  
2002-03-21 10:28:26 51°9.778 2°40.454 9.33558 3.495088 32.105794  
2002-03-21 10:28:32 51°9.777 2°40.447 9.33558 3.495088 32.105794  
2002-03-21 10:28:36 51°9.775 2°40.442 9.293586 3.482164 31.960893  
2002-03-21 10:28:42 51°9.774 2°40.435 9.295198 3.465634 31.77803  
2002-03-21 10:28:46 51°9.772 2°40.43 9.319847 3.458821 31.700045  
2002-03-21 10:28:52 51°9.77 2°40.424 9.27253 3.465433 31.767315  
2002-03-21 10:28:56 51°9.769 2°40.419 9.26627 3.475351 31.873336  
2002-03-21 10:29:02 51°9.767 2°40.412 9.26627 3.475351 31.873336  
2002-03-21 10:29:07 51°9.766 2°40.407 9.310131 3.48016 31.928116  
2002-03-21 10:29:12 51°9.764 2°40.402 9.31179 3.483266 31.962662  
2002-03-21 10:29:16 51°9.763 2°40.398 9.285335 3.48547 31.988031  
2002-03-21 10:29:20 51°9.762 2°40.393 9.312596 3.491581 32.053963  
2002-03-21 10:29:26 51°9.76 2°40.387 9.336291 3.498594 32.133513  
2002-03-21 10:29:32 51°9.758 2°40.381 9.336291 3.498594 32.133513  
2002-03-21 10:29:36 51°9.757 2°40.377 9.356804 3.503002 32.184345  
2002-03-21 10:29:42 51°9.756 2°40.37 9.411633 3.503403 32.190634  
2002-03-21 10:29:46 51°9.754 2°40.366 9.465185 3.501199 32.168143  
2002-03-21 10:29:52 51°9.753 2°40.36 9.511606 3.495589 32.105784  
2002-03-21 10:29:57 51°9.752 2°40.355 9.545054 3.481262 31.946612  
2002-03-21 10:30:02 51°9.751 2°40.349 9.545054 3.481262 31.946612  
2002-03-21 10:30:06 51°9.75 2°40.345 9.563991 3.464231 31.75725  
2002-03-21 10:30:11 51°9.749 2°40.34 9.649208 3.4469 31.563009  
2002-03-21 10:30:16 51°9.748 2°40.335 9.586037 3.414342 31.209698